sensor_id;sensor_type;location;lat;lon;timestamp;pressure;altitude;pressure_sealevel;temperature;humidity
64141;BME280;50436;50.618;7.932;2024-03-08T00:01:24;96585.78;;;-0.85;100.00
64141;BME280;50436;50.618;7.932;2024-03-08T00:04:10;96594.47;;;-0.84;100.00
64141;BME280;50436;50.618;7.932;2024-03-08T00:06:56;96572.63;;;-0.85;100.00
64141;BME280;50436;50.618;7.932;2024-03-08T00:09:42;96571.31;;;-0.89;100.00
64141;BME280;50436;50.618;7.932;2024-03-08T00:12:27;96556.75;;;-0.91;100.00
64141;BME280;50436;50.618;7.932;2024-03-08T00:15:15;96552.47;;;-0.92;100.00
64141;BME280;50436;50.618;7.932;2024-03-08T00:18:01;96562.81;;;-0.91;100.00
64141;BME280;50436;50.618;7.932;2024-03-08T00:20:47;96555.63;;;-0.97;100.00
64141;BME280;50436;50.618;7.932;2024-03-08T00:23:33;96568.06;;;-0.91;100.00
64141;BME280;50436;50.618;7.932;2024-03-08T00:26:19;96553.81;;;-0.96;100.00
64141;BME280;50436;50.618;7.932;2024-03-08T00:29:04;96558.25;;;-0.97;100.00
64141;BME280;50436;50.618;7.932;2024-03-08T00:31:51;96565.13;;;-0.96;100.00
64141;BME280;50436;50.618;7.932;2024-03-08T00:34:37;96561.88;;;-0.98;100.00
64141;BME280;50436;50.618;7.932;2024-03-08T00:37:23;96566.94;;;-0.96;100.00
64141;BME280;50436;50.618;7.932;2024-03-08T00:40:09;96563.84;;;-1.00;100.00
64141;BME280;50436;50.618;7.932;2024-03-08T00:42:55;96541.53;;;-1.04;100.00
64141;BME280;50436;50.618;7.932;2024-03-08T00:45:43;96547.16;;;-1.07;100.00
64141;BME280;50436;50.618;7.932;2024-03-08T00:48:29;96553.41;;;-1.08;100.00
64141;BME280;50436;50.618;7.932;2024-03-08T00:51:16;96549.13;;;-1.09;100.00
64141;BME280;50436;50.618;7.932;2024-03-08T00:54:02;96544.81;;;-1.02;100.00
64141;BME280;50436;50.618;7.932;2024-03-08T00:56:48;96539.09;;;-1.05;100.00
64141;BME280;50436;50.618;7.932;2024-03-08T00:59:34;96534.19;;;-1.08;100.00
64141;BME280;50436;50.618;7.932;2024-03-08T01:02:20;96533.06;;;-1.14;100.00
64141;BME280;50436;50.618;7.932;2024-03-08T01:05:07;96525.66;;;-1.10;100.00
64141;BME280;50436;50.618;7.932;2024-03-08T01:07:53;96521.94;;;-1.16;100.00
64141;BME280;50436;50.618;7.932;2024-03-08T01:10:38;96517.81;;;-1.19;100.00
64141;BME280;50436;50.618;7.932;2024-03-08T01:13:26;96508.31;;;-1.20;100.00
64141;BME280;50436;50.618;7.932;2024-03-08T01:16:13;96512.25;;;-1.16;100.00
64141;BME280;50436;50.618;7.932;2024-03-08T01:18:59;96508.81;;;-1.16;100.00
64141;BME280;50436;50.618;7.932;2024-03-08T01:21:44;96506.63;;;-1.13;100.00
64141;BME280;50436;50.618;7.932;2024-03-08T01:24:30;96504.19;;;-1.14;100.00
64141;BME280;50436;50.618;7.932;2024-03-08T01:27:16;96500.88;;;-1.08;100.00
64141;BME280;50436;50.618;7.932;2024-03-08T01:30:02;96492.06;;;-1.15;100.00
64141;BME280;50436;50.618;7.932;2024-03-08T01:32:49;96488.59;;;-1.16;100.00
64141;BME280;50436;50.618;7.932;2024-03-08T01:35:35;96482.69;;;-1.18;100.00
64141;BME280;50436;50.618;7.932;2024-03-08T01:38:20;96481.06;;;-1.19;100.00
64141;BME280;50436;50.618;7.932;2024-03-08T01:41:06;96464.84;;;-1.22;100.00
64141;BME280;50436;50.618;7.932;2024-03-08T01:43:55;96475.00;;;-1.19;100.00
64141;BME280;50436;50.618;7.932;2024-03-08T01:46:40;96458.97;;;-1.24;100.00
64141;BME280;50436;50.618;7.932;2024-03-08T01:49:27;96461.41;;;-1.23;100.00
64141;BME280;50436;50.618;7.932;2024-03-08T01:52:13;96464.03;;;-1.23;100.00
64141;BME280;50436;50.618;7.932;2024-03-08T01:55:01;96453.81;;;-1.18;100.00
64141;BME280;50436;50.618;7.932;2024-03-08T01:57:48;96450.41;;;-1.26;100.00
64141;BME280;50436;50.618;7.932;2024-03-08T02:00:35;96442.91;;;-1.29;100.00
64141;BME280;50436;50.618;7.932;2024-03-08T02:03:20;96449.78;;;-1.28;100.00
64141;BME280;50436;50.618;7.932;2024-03-08T02:06:08;96446.81;;;-1.25;100.00
64141;BME280;50436;50.618;7.932;2024-03-08T02:08:55;96438.09;;;-1.26;100.00
64141;BME280;50436;50.618;7.932;2024-03-08T02:11:41;96437.28;;;-1.26;100.00
64141;BME280;50436;50.618;7.932;2024-03-08T02:14:30;96440.91;;;-1.27;100.00
64141;BME280;50436;50.618;7.932;2024-03-08T02:17:16;96440.28;;;-1.29;100.00
64141;BME280;50436;50.618;7.932;2024-03-08T02:20:02;96433.41;;;-1.30;100.00
64141;BME280;50436;50.618;7.932;2024-03-08T02:22:50;96423.72;;;-1.30;100.00
64141;BME280;50436;50.618;7.932;2024-03-08T02:25:36;96430.28;;;-1.34;100.00
64141;BME280;50436;50.618;7.932;2024-03-08T02:28:23;96429.97;;;-1.31;100.00
64141;BME280;50436;50.618;7.932;2024-03-08T02:31:13;96424.84;;;-1.32;100.00
64141;BME280;50436;50.618;7.932;2024-03-08T02:33:58;96427.47;;;-1.32;100.00
64141;BME280;50436;50.618;7.932;2024-03-08T02:36:45;96418.69;;;-1.39;100.00
64141;BME280;50436;50.618;7.932;2024-03-08T02:39:30;96420.16;;;-1.37;100.00
64141;BME280;50436;50.618;7.932;2024-03-08T02:42:18;96417.88;;;-1.40;100.00
64141;BME280;50436;50.618;7.932;2024-03-08T02:45:05;96406.47;;;-1.32;100.00
64141;BME280;50436;50.618;7.932;2024-03-08T02:47:51;96406.84;;;-1.35;100.00
64141;BME280;50436;50.618;7.932;2024-03-08T02:50:37;96406.84;;;-1.35;100.00
64141;BME280;50436;50.618;7.932;2024-03-08T02:53:25;96387.84;;;-1.37;100.00
64141;BME280;50436;50.618;7.932;2024-03-08T02:56:11;96397.97;;;-1.34;100.00
64141;BME280;50436;50.618;7.932;2024-03-08T02:58:58;96391.28;;;-1.37;100.00
64141;BME280;50436;50.618;7.932;2024-03-08T03:01:44;96391.44;;;-1.38;100.00
64141;BME280;50436;50.618;7.932;2024-03-08T03:04:30;96387.34;;;-1.41;100.00
64141;BME280;50436;50.618;7.932;2024-03-08T03:07:16;96386.19;;;-1.38;100.00
64141;BME280;50436;50.618;7.932;2024-03-08T03:10:02;96387.53;;;-1.43;100.00
64141;BME280;50436;50.618;7.932;2024-03-08T03:12:48;96384.09;;;-1.43;100.00
64141;BME280;50436;50.618;7.932;2024-03-08T03:15:34;96379.03;;;-1.45;100.00
64141;BME280;50436;50.618;7.932;2024-03-08T03:18:20;96379.84;;;-1.44;100.00
64141;BME280;50436;50.618;7.932;2024-03-08T03:21:09;96380.66;;;-1.44;100.00
64141;BME280;50436;50.618;7.932;2024-03-08T03:23:55;96371.50;;;-1.48;100.00
64141;BME280;50436;50.618;7.932;2024-03-08T03:26:40;96366.59;;;-1.51;100.00
64141;BME280;50436;50.618;7.932;2024-03-08T03:29:26;96358.91;;;-1.52;100.00
64141;BME280;50436;50.618;7.932;2024-03-08T03:32:15;96358.41;;;-1.56;100.00
64141;BME280;50436;50.618;7.932;2024-03-08T03:35:02;96368.59;;;-1.53;100.00
64141;BME280;50436;50.618;7.932;2024-03-08T03:37:50;96368.59;;;-1.53;100.00
64141;BME280;50436;50.618;7.932;2024-03-08T03:41:08;96358.09;;;-1.53;100.00
64141;BME280;50436;50.618;7.932;2024-03-08T03:43:57;96361.03;;;-1.56;100.00
64141;BME280;50436;50.618;7.932;2024-03-08T03:46:43;96357.78;;;-1.58;100.00
64141;BME280;50436;50.618;7.932;2024-03-08T03:49:32;96354.75;;;-1.47;100.00
64141;BME280;50436;50.618;7.932;2024-03-08T03:52:18;96355.59;;;-1.46;100.00
64141;BME280;50436;50.618;7.932;2024-03-08T03:55:04;96357.72;;;-1.50;100.00
64141;BME280;50436;50.618;7.932;2024-03-08T03:57:50;96346.28;;;-1.57;100.00
64141;BME280;50436;50.618;7.932;2024-03-08T04:00:36;96352.53;;;-1.58;100.00
64141;BME280;50436;50.618;7.932;2024-03-08T04:03:22;96351.38;;;-1.55;100.00
64141;BME280;50436;50.618;7.932;2024-03-08T04:06:08;96341.78;;;-1.63;100.00
64141;BME280;50436;50.618;7.932;2024-03-08T04:08:54;96346.03;;;-1.62;100.00
64141;BME280;50436;50.618;7.932;2024-03-08T04:11:40;96342.72;;;-1.64;100.00
64141;BME280;50436;50.618;7.932;2024-03-08T04:14:26;96340.41;;;-1.59;100.00
64141;BME280;50436;50.618;7.932;2024-03-08T04:17:12;96330.91;;;-1.60;100.00
64141;BME280;50436;50.618;7.932;2024-03-08T04:19:58;96331.91;;;-1.61;100.00
64141;BME280;50436;50.618;7.932;2024-03-08T04:22:44;96326.34;;;-1.66;100.00
64141;BME280;50436;50.618;7.932;2024-03-08T04:25:30;96323.91;;;-1.67;100.00
64141;BME280;50436;50.618;7.932;2024-03-08T04:28:16;96328.78;;;-1.64;100.00
64141;BME280;50436;50.618;7.932;2024-03-08T04:31:05;96327.16;;;-1.65;100.00
64141;BME280;50436;50.618;7.932;2024-03-08T04:33:52;96329.97;;;-1.67;100.00
64141;BME280;50436;50.618;7.932;2024-03-08T04:36:38;96329.63;;;-1.64;100.00
64141;BME280;50436;50.618;7.932;2024-03-08T04:39:24;96318.66;;;-1.67;100.00
64141;BME280;50436;50.618;7.932;2024-03-08T04:42:14;96316.50;;;-1.64;100.00
64141;BME280;50436;50.618;7.932;2024-03-08T04:45:00;96326.47;;;-1.59;100.00
64141;BME280;50436;50.618;7.932;2024-03-08T04:47:46;96318.78;;;-1.61;100.00
64141;BME280;50436;50.618;7.932;2024-03-08T04:50:32;96319.94;;;-1.63;100.00
64141;BME280;50436;50.618;7.932;2024-03-08T04:53:18;96324.53;;;-1.65;100.00
64141;BME280;50436;50.618;7.932;2024-03-08T04:56:04;96324.53;;;-1.65;100.00
64141;BME280;50436;50.618;7.932;2024-03-08T04:58:52;96324.91;;;-1.69;100.00
64141;BME280;50436;50.618;7.932;2024-03-08T05:01:39;96320.78;;;-1.63;100.00
64141;BME280;50436;50.618;7.932;2024-03-08T05:04:27;96323.09;;;-1.68;100.00
64141;BME280;50436;50.618;7.932;2024-03-08T05:07:13;96325.25;;;-1.72;100.00
64141;BME280;50436;50.618;7.932;2024-03-08T05:09:59;96320.66;;;-1.70;100.00
64141;BME280;50436;50.618;7.932;2024-03-08T05:12:45;96319.47;;;-1.67;100.00
64141;BME280;50436;50.618;7.932;2024-03-08T05:15:31;96322.91;;;-1.66;100.00
64141;BME280;50436;50.618;7.932;2024-03-08T05:18:20;96314.69;;;-1.63;100.00
64141;BME280;50436;50.618;7.932;2024-03-08T05:21:07;96321.59;;;-1.62;100.00
64141;BME280;50436;50.618;7.932;2024-03-08T05:23:54;96322.72;;;-1.65;100.00
64141;BME280;50436;50.618;7.932;2024-03-08T05:26:41;96312.91;;;-1.63;100.00
64141;BME280;50436;50.618;7.932;2024-03-08T05:29:28;96316.69;;;-1.65;100.00
64141;BME280;50436;50.618;7.932;2024-03-08T05:32:14;96318.16;;;-1.63;100.00
64141;BME280;50436;50.618;7.932;2024-03-08T05:35:02;96306.28;;;-1.59;100.00
64141;BME280;50436;50.618;7.932;2024-03-08T05:37:52;96306.72;;;-1.70;100.00
64141;BME280;50436;50.618;7.932;2024-03-08T05:40:38;96300.66;;;-1.71;100.00
64141;BME280;50436;50.618;7.932;2024-03-08T05:43:31;96305.91;;;-1.71;100.00
64141;BME280;50436;50.618;7.932;2024-03-08T05:46:18;96306.06;;;-1.72;100.00
64141;BME280;50436;50.618;7.932;2024-03-08T05:49:05;96297.22;;;-1.71;100.00
64141;BME280;50436;50.618;7.932;2024-03-08T05:51:51;96299.84;;;-1.71;100.00
64141;BME280;50436;50.618;7.932;2024-03-08T05:54:37;96291.59;;;-1.68;100.00
64141;BME280;50436;50.618;7.932;2024-03-08T05:57:23;96292.59;;;-1.69;100.00
64141;BME280;50436;50.618;7.932;2024-03-08T06:00:12;96285.38;;;-1.67;100.00
64141;BME280;50436;50.618;7.932;2024-03-08T06:03:01;96289.00;;;-1.68;100.00
64141;BME280;50436;50.618;7.932;2024-03-08T06:05:48;96285.00;;;-1.64;100.00
64141;BME280;50436;50.618;7.932;2024-03-08T06:08:34;96279.25;;;-1.59;100.00
64141;BME280;50436;50.618;7.932;2024-03-08T06:11:20;96287.94;;;-1.59;100.00
64141;BME280;50436;50.618;7.932;2024-03-08T06:14:06;96278.25;;;-1.58;100.00
64141;BME280;50436;50.618;7.932;2024-03-08T06:16:52;96287.22;;;-1.53;100.00
64141;BME280;50436;50.618;7.932;2024-03-08T06:19:38;96280.97;;;-1.52;100.00
64141;BME280;50436;50.618;7.932;2024-03-08T06:22:23;96281.97;;;-1.53;100.00
64141;BME280;50436;50.618;7.932;2024-03-08T06:25:10;96282.41;;;-1.49;100.00
64141;BME280;50436;50.618;7.932;2024-03-08T06:27:59;96275.38;;;-1.49;100.00
64141;BME280;50436;50.618;7.932;2024-03-08T06:30:45;96266.53;;;-1.48;100.00
64141;BME280;50436;50.618;7.932;2024-03-08T06:33:31;96269.88;;;-1.39;100.00
64141;BME280;50436;50.618;7.932;2024-03-08T06:36:18;96278.38;;;-1.37;100.00
64141;BME280;50436;50.618;7.932;2024-03-08T06:39:04;96276.41;;;-1.35;100.00
64141;BME280;50436;50.618;7.932;2024-03-08T06:41:55;96261.47;;;-1.34;100.00
64141;BME280;50436;50.618;7.932;2024-03-08T06:44:41;96280.13;;;-1.29;100.00
64141;BME280;50436;50.618;7.932;2024-03-08T06:47:34;96276.13;;;-1.25;100.00
64141;BME280;50436;50.618;7.932;2024-03-08T06:50:20;96263.28;;;-1.20;100.00
64141;BME280;50436;50.618;7.932;2024-03-08T06:53:06;96269.16;;;-1.18;100.00
64141;BME280;50436;50.618;7.932;2024-03-08T06:55:51;96273.34;;;-1.09;100.00
64141;BME280;50436;50.618;7.932;2024-03-08T06:58:37;96260.06;;;-1.07;100.00
64141;BME280;50436;50.618;7.932;2024-03-08T07:01:23;96261.13;;;-1.02;100.00
64141;BME280;50436;50.618;7.932;2024-03-08T07:04:11;96263.50;;;-0.92;100.00
64141;BME280;50436;50.618;7.932;2024-03-08T07:06:57;96271.38;;;-0.92;100.00
64141;BME280;50436;50.618;7.932;2024-03-08T07:09:45;96273.25;;;-0.86;100.00
64141;BME280;50436;50.618;7.932;2024-03-08T07:12:30;96258.78;;;-0.82;100.00
64141;BME280;50436;50.618;7.932;2024-03-08T07:15:16;96263.13;;;-0.74;100.00
64141;BME280;50436;50.618;7.932;2024-03-08T07:18:05;96261.59;;;-0.69;100.00
64141;BME280;50436;50.618;7.932;2024-03-08T07:20:51;96257.75;;;-0.66;100.00
64141;BME280;50436;50.618;7.932;2024-03-08T07:23:37;96257.03;;;-0.60;100.00
64141;BME280;50436;50.618;7.932;2024-03-08T07:26:32;96245.59;;;-0.52;100.00
64141;BME280;50436;50.618;7.932;2024-03-08T07:29:18;96247.31;;;-0.45;100.00
64141;BME280;50436;50.618;7.932;2024-03-08T07:32:03;96252.19;;;-0.42;100.00
64141;BME280;50436;50.618;7.932;2024-03-08T07:35:07;96250.38;;;-0.41;100.00
64141;BME280;50436;50.618;7.932;2024-03-08T07:37:53;96244.75;;;-0.38;100.00
64141;BME280;50436;50.618;7.932;2024-03-08T07:40:41;96252.09;;;-0.34;100.00
64141;BME280;50436;50.618;7.932;2024-03-08T07:43:29;96247.44;;;-0.32;100.00
64141;BME280;50436;50.618;7.932;2024-03-08T07:46:15;96242.72;;;-0.21;100.00
64141;BME280;50436;50.618;7.932;2024-03-08T07:49:04;96241.91;;;-0.22;100.00
64141;BME280;50436;50.618;7.932;2024-03-08T07:51:50;96242.59;;;-0.13;100.00
64141;BME280;50436;50.618;7.932;2024-03-08T07:54:35;96237.56;;;-0.08;100.00
64141;BME280;50436;50.618;7.932;2024-03-08T07:57:21;96228.31;;;-0.04;100.00
64141;BME280;50436;50.618;7.932;2024-03-08T08:00:08;96245.38;;;0.00;100.00
64141;BME280;50436;50.618;7.932;2024-03-08T08:02:54;96234.00;;;-0.01;100.00
64141;BME280;50436;50.618;7.932;2024-03-08T08:05:40;96242.03;;;0.13;100.00
64141;BME280;50436;50.618;7.932;2024-03-08T08:08:26;96231.16;;;0.16;100.00
64141;BME280;50436;50.618;7.932;2024-03-08T08:11:12;96231.19;;;0.22;100.00
64141;BME280;50436;50.618;7.932;2024-03-08T08:13:58;96236.97;;;0.33;100.00
64141;BME280;50436;50.618;7.932;2024-03-08T08:16:45;96234.56;;;0.38;100.00
64141;BME280;50436;50.618;7.932;2024-03-08T08:19:35;96226.09;;;0.42;100.00
64141;BME280;50436;50.618;7.932;2024-03-08T08:22:21;96234.41;;;0.46;100.00
64141;BME280;50436;50.618;7.932;2024-03-08T08:25:08;96212.25;;;0.55;100.00
64141;BME280;50436;50.618;7.932;2024-03-08T08:27:54;96222.38;;;0.58;100.00
64141;BME280;50436;50.618;7.932;2024-03-08T08:30:40;96220.59;;;0.65;100.00
64141;BME280;50436;50.618;7.932;2024-03-08T08:33:26;96210.53;;;0.75;100.00
64141;BME280;50436;50.618;7.932;2024-03-08T08:36:12;96208.75;;;0.82;100.00
64141;BME280;50436;50.618;7.932;2024-03-08T08:38:59;96209.63;;;0.90;100.00
64141;BME280;50436;50.618;7.932;2024-03-08T08:41:45;96214.13;;;0.96;100.00
64141;BME280;50436;50.618;7.932;2024-03-08T08:44:31;96212.00;;;1.19;100.00
64141;BME280;50436;50.618;7.932;2024-03-08T08:47:20;96214.25;;;1.22;100.00
64141;BME280;50436;50.618;7.932;2024-03-08T08:50:06;96200.91;;;1.30;100.00
64141;BME280;50436;50.618;7.932;2024-03-08T08:52:52;96190.41;;;1.44;100.00
64141;BME280;50436;50.618;7.932;2024-03-08T08:55:40;96192.47;;;1.55;100.00
64141;BME280;50436;50.618;7.932;2024-03-08T08:58:26;96174.22;;;1.60;100.00
64141;BME280;50436;50.618;7.932;2024-03-08T09:01:12;96184.00;;;1.66;100.00
64141;BME280;50436;50.618;7.932;2024-03-08T09:03:58;96175.47;;;1.64;100.00
64141;BME280;50436;50.618;7.932;2024-03-08T09:06:44;96179.13;;;1.76;100.00
64141;BME280;50436;50.618;7.932;2024-03-08T09:09:30;96173.88;;;1.83;100.00
64141;BME280;50436;50.618;7.932;2024-03-08T09:12:16;96174.50;;;1.91;100.00
64141;BME280;50436;50.618;7.932;2024-03-08T09:15:03;96169.63;;;2.02;100.00
64141;BME280;50436;50.618;7.932;2024-03-08T09:17:50;96177.97;;;2.12;100.00
64141;BME280;50436;50.618;7.932;2024-03-08T09:20:36;96174.09;;;2.14;100.00
64141;BME280;50436;50.618;7.932;2024-03-08T09:23:23;96159.31;;;2.27;100.00
64141;BME280;50436;50.618;7.932;2024-03-08T09:26:09;96164.97;;;2.30;100.00
64141;BME280;50436;50.618;7.932;2024-03-08T09:28:56;96149.94;;;2.37;100.00
64141;BME280;50436;50.618;7.932;2024-03-08T09:31:42;96154.63;;;2.42;100.00
64141;BME280;50436;50.618;7.932;2024-03-08T09:34:27;96146.66;;;2.68;100.00
64141;BME280;50436;50.618;7.932;2024-03-08T09:37:13;96155.38;;;2.69;100.00
64141;BME280;50436;50.618;7.932;2024-03-08T09:39:59;96141.75;;;2.72;100.00
64141;BME280;50436;50.618;7.932;2024-03-08T09:42:48;96146.22;;;2.78;100.00
64141;BME280;50436;50.618;7.932;2024-03-08T09:45:36;96137.66;;;2.96;100.00
64141;BME280;50436;50.618;7.932;2024-03-08T09:48:26;96131.16;;;2.92;100.00
64141;BME280;50436;50.618;7.932;2024-03-08T09:51:12;96135.16;;;3.07;100.00
64141;BME280;50436;50.618;7.932;2024-03-08T09:54:01;96129.38;;;3.30;100.00
64141;BME280;50436;50.618;7.932;2024-03-08T09:56:51;96123.03;;;3.38;100.00
64141;BME280;50436;50.618;7.932;2024-03-08T09:59:37;96126.69;;;3.37;100.00
64141;BME280;50436;50.618;7.932;2024-03-08T10:02:23;96112.78;;;3.48;100.00
64141;BME280;50436;50.618;7.932;2024-03-08T10:05:09;96114.53;;;3.68;100.00
64141;BME280;50436;50.618;7.932;2024-03-08T10:07:56;96107.16;;;3.70;100.00
64141;BME280;50436;50.618;7.932;2024-03-08T10:10:42;96111.97;;;4.11;100.00
64141;BME280;50436;50.618;7.932;2024-03-08T10:13:28;96108.72;;;4.09;100.00
64141;BME280;50436;50.618;7.932;2024-03-08T10:16:14;96102.59;;;4.33;100.00
64141;BME280;50436;50.618;7.932;2024-03-08T10:19:02;96093.63;;;4.59;100.00
64141;BME280;50436;50.618;7.932;2024-03-08T10:21:51;96107.06;;;5.31;100.00
64141;BME280;50436;50.618;7.932;2024-03-08T10:24:41;96092.38;;;6.54;100.00
64141;BME280;50436;50.618;7.932;2024-03-08T10:27:27;96074.88;;;7.33;100.00
64141;BME280;50436;50.618;7.932;2024-03-08T10:30:15;96079.56;;;9.55;92.77
64141;BME280;50436;50.618;7.932;2024-03-08T10:33:01;96076.16;;;9.15;88.44
64141;BME280;50436;50.618;7.932;2024-03-08T10:35:50;96074.53;;;10.86;79.53
64141;BME280;50436;50.618;7.932;2024-03-08T10:38:45;96074.34;;;10.56;82.26
64141;BME280;50436;50.618;7.932;2024-03-08T10:41:36;96056.03;;;11.42;72.85
64141;BME280;50436;50.618;7.932;2024-03-08T10:50:18;96038.19;;;13.50;48.74
64141;BME280;50436;50.618;7.932;2024-03-08T10:53:09;96047.88;;;13.96;45.62
64141;BME280;50436;50.618;7.932;2024-03-08T10:55:57;96060.44;;;12.81;50.83
64141;BME280;50436;50.618;7.932;2024-03-08T10:58:43;96048.63;;;12.77;49.41
64141;BME280;50436;50.618;7.932;2024-03-08T11:01:30;96066.13;;;12.23;48.56
64141;BME280;50436;50.618;7.932;2024-03-08T11:04:16;96039.28;;;14.62;43.86
64141;BME280;50436;50.618;7.932;2024-03-08T11:07:12;96032.38;;;14.16;43.17
64141;BME280;50436;50.618;7.932;2024-03-08T11:10:03;96022.56;;;15.37;39.07
64141;BME280;50436;50.618;7.932;2024-03-08T11:12:56;96029.09;;;13.36;42.44
64141;BME280;50436;50.618;7.932;2024-03-08T11:15:42;96020.66;;;14.02;41.60
64141;BME280;50436;50.618;7.932;2024-03-08T11:18:32;96037.50;;;13.74;42.72
64141;BME280;50436;50.618;7.932;2024-03-08T11:21:18;96012.16;;;15.06;41.86
64141;BME280;50436;50.618;7.932;2024-03-08T11:24:11;96007.25;;;18.05;33.16
64141;BME280;50436;50.618;7.932;2024-03-08T11:26:58;95985.59;;;19.69;31.62
64141;BME280;50436;50.618;7.932;2024-03-08T11:29:49;95993.66;;;18.95;30.75
64141;BME280;50436;50.618;7.932;2024-03-08T11:32:47;95985.41;;;19.57;29.21
64141;BME280;50436;50.618;7.932;2024-03-08T11:35:33;95987.41;;;17.73;30.27
64141;BME280;50436;50.618;7.932;2024-03-08T11:38:21;95994.56;;;17.42;30.86
64141;BME280;50436;50.618;7.932;2024-03-08T11:41:08;95992.34;;;14.39;35.50
64141;BME280;50436;50.618;7.932;2024-03-08T11:44:04;95989.44;;;14.64;38.04
64141;BME280;50436;50.618;7.932;2024-03-08T11:46:50;95974.47;;;18.29;34.50
64141;BME280;50436;50.618;7.932;2024-03-08T11:49:40;95959.94;;;19.27;30.41
64141;BME280;50436;50.618;7.932;2024-03-08T11:52:30;95972.31;;;18.17;30.81
64141;BME280;50436;50.618;7.932;2024-03-08T11:55:16;95978.88;;;16.29;33.98
64141;BME280;50436;50.618;7.932;2024-03-08T11:58:05;95955.84;;;19.55;31.76
64141;BME280;50436;50.618;7.932;2024-03-08T12:01:09;95961.63;;;18.65;29.92
64141;BME280;50436;50.618;7.932;2024-03-08T12:03:59;95958.19;;;17.98;31.06
64141;BME280;50436;50.618;7.932;2024-03-08T12:06:45;95969.16;;;18.46;32.17
64141;BME280;50436;50.618;7.932;2024-03-08T12:09:33;95961.13;;;18.63;30.89
64141;BME280;50436;50.618;7.932;2024-03-08T12:12:19;95944.97;;;19.55;29.45
64141;BME280;50436;50.618;7.932;2024-03-08T12:15:05;95945.00;;;21.18;28.71
64141;BME280;50436;50.618;7.932;2024-03-08T12:17:52;95953.00;;;19.03;30.21
64141;BME280;50436;50.618;7.932;2024-03-08T12:20:39;95946.53;;;21.36;28.43
64141;BME280;50436;50.618;7.932;2024-03-08T12:23:25;95930.09;;;23.59;26.09
64141;BME280;50436;50.618;7.932;2024-03-08T12:26:23;95931.41;;;21.89;25.82
64141;BME280;50436;50.618;7.932;2024-03-08T12:29:25;95922.94;;;20.17;27.63
64141;BME280;50436;50.618;7.932;2024-03-08T12:32:13;95935.47;;;20.65;27.61
64141;BME280;50436;50.618;7.932;2024-03-08T12:34:59;95923.88;;;22.28;27.59
64141;BME280;50436;50.618;7.932;2024-03-08T12:37:45;95927.50;;;21.57;27.17
64141;BME280;50436;50.618;7.932;2024-03-08T12:40:32;95904.69;;;24.55;23.01
64141;BME280;50436;50.618;7.932;2024-03-08T12:43:22;95906.00;;;26.33;22.66
64141;BME280;50436;50.618;7.932;2024-03-08T12:46:10;95902.78;;;25.54;20.94
64141;BME280;50436;50.618;7.932;2024-03-08T12:48:58;95903.81;;;26.62;22.14
64141;BME280;50436;50.618;7.932;2024-03-08T12:51:45;95901.44;;;24.97;22.59
64141;BME280;50436;50.618;7.932;2024-03-08T12:54:31;95891.13;;;23.10;22.76
64141;BME280;50436;50.618;7.932;2024-03-08T12:57:17;95902.50;;;24.17;23.09
64141;BME280;50436;50.618;7.932;2024-03-08T13:00:04;95884.06;;;24.73;22.48
64141;BME280;50436;50.618;7.932;2024-03-08T13:02:50;95883.06;;;24.06;22.17
64141;BME280;50436;50.618;7.932;2024-03-08T13:05:37;95868.88;;;25.43;20.78
64141;BME280;50436;50.618;7.932;2024-03-08T13:08:25;95873.78;;;23.95;21.12
64141;BME280;50436;50.618;7.932;2024-03-08T13:11:13;95871.09;;;24.39;23.04
64141;BME280;50436;50.618;7.932;2024-03-08T13:14:03;95864.84;;;24.54;21.50
64141;BME280;50436;50.618;7.932;2024-03-08T13:16:51;95867.63;;;21.90;22.84
64141;BME280;50436;50.618;7.932;2024-03-08T13:19:37;95865.25;;;23.56;22.97
64141;BME280;50436;50.618;7.932;2024-03-08T13:22:23;95859.06;;;22.34;23.71
64141;BME280;50436;50.618;7.932;2024-03-08T13:25:10;95868.69;;;19.31;26.27
64141;BME280;50436;50.618;7.932;2024-03-08T13:27:58;95864.00;;;18.48;27.44
64141;BME280;50436;50.618;7.932;2024-03-08T13:30:45;95854.31;;;20.84;24.73
64141;BME280;50436;50.618;7.932;2024-03-08T13:33:31;95844.50;;;21.42;25.09
64141;BME280;50436;50.618;7.932;2024-03-08T13:36:17;95849.75;;;22.84;23.51
64141;BME280;50436;50.618;7.932;2024-03-08T13:39:06;95861.94;;;20.62;25.14
64141;BME280;50436;50.618;7.932;2024-03-08T13:42:00;95853.69;;;21.71;24.40
64141;BME280;50436;50.618;7.932;2024-03-08T13:44:46;95838.63;;;22.52;23.74
64141;BME280;50436;50.618;7.932;2024-03-08T13:47:32;95834.50;;;22.21;24.18
64141;BME280;50436;50.618;7.932;2024-03-08T13:50:19;95837.84;;;21.73;23.79
64141;BME280;50436;50.618;7.932;2024-03-08T13:53:08;95823.28;;;22.35;24.22
64141;BME280;50436;50.618;7.932;2024-03-08T13:55:55;95836.47;;;19.38;26.38
64141;BME280;50436;50.618;7.932;2024-03-08T13:58:44;95827.81;;;19.01;28.12
64141;BME280;50436;50.618;7.932;2024-03-08T14:01:30;95802.84;;;20.50;25.76
64141;BME280;50436;50.618;7.932;2024-03-08T14:04:16;95806.75;;;20.31;26.51
64141;BME280;50436;50.618;7.932;2024-03-08T14:07:05;95788.09;;;19.48;27.85
64141;BME280;50436;50.618;7.932;2024-03-08T14:09:53;95803.41;;;22.35;25.18
64141;BME280;50436;50.618;7.932;2024-03-08T14:12:39;95800.06;;;23.55;24.01
64141;BME280;50436;50.618;7.932;2024-03-08T14:15:25;95793.16;;;23.45;23.75
64141;BME280;50436;50.618;7.932;2024-03-08T14:18:12;95788.59;;;21.66;24.94
64141;BME280;50436;50.618;7.932;2024-03-08T14:20:58;95788.94;;;23.07;23.30
64141;BME280;50436;50.618;7.932;2024-03-08T14:23:44;95782.97;;;24.45;22.78
64141;BME280;50436;50.618;7.932;2024-03-08T14:26:30;95779.13;;;23.19;23.41
64141;BME280;50436;50.618;7.932;2024-03-08T14:29:16;95780.13;;;22.49;24.54
64141;BME280;50436;50.618;7.932;2024-03-08T14:32:06;95786.81;;;23.97;22.77
64141;BME280;50436;50.618;7.932;2024-03-08T14:34:52;95774.13;;;21.53;25.02
64141;BME280;50436;50.618;7.932;2024-03-08T14:37:39;95762.75;;;19.01;27.65
64141;BME280;50436;50.618;7.932;2024-03-08T14:40:25;95764.91;;;20.24;26.65
64141;BME280;50436;50.618;7.932;2024-03-08T14:43:11;95764.22;;;20.36;26.87
64141;BME280;50436;50.618;7.932;2024-03-08T14:45:57;95760.09;;;17.96;29.29